Aircraft
UPR1037 PT-QAC TBM 850
SBCH
Serafin Enoss Bertaso Airport
SBBI
Bacacheri Airport
Pilot:: Klebson
Aircraft:: Black Square TBM 850 UP
Alternate: SBGR
Network: ivao
FLIGHT DETAILS
Distance: 212nm Duration 01h 24m
Cruise Speed: Flight Level: 21000
Validation: Validated Type Charter
Flight Fuel
ZFW: 2333
Block Fuel/Initial FOB: 450
Flight Fuel: 256
Cargo
Passengers: 4
Cargo: 68
ROUTE
ROUTE: NIRDA PADUL KOTIL
REMARKS:
DATE
Date: 26-04-25
Departure Time: 1134
Cargo: 68
FLIGHT DETAILS
Crashed: No
Validator Comments: Validado por Rafael
Flight Rating: 98
LANDING ANALYSIS
Landing wind: 291º/4 kt
Landing heading:
Landing VS:: -161 ft/min
Landing IAS:: 87 kt
Landing Force G: 1.1 G
Landing Bank: -1
Landing Pitch: -4
Landing Flaps: 50
Navigation Lights: OFF
Landing Lights: ON
Beacon Lights: OFF
Strobe Lights: ON
viserfly

ALTITUDE CHART

viserfly

MAIN EVENTS

DATE EVENT IAS ALTITUDE
2026-04-25 11:17:40 FLYacars version 1.3.4 0 2120
2026-04-25 11:17:40 Aircraft boarding in progress 0 2120
2026-04-25 11:17:40 Navigation Lights ON 0 2120
2026-04-25 11:17:40 Strobe Lights ON 0 2120
2026-04-25 11:17:40 Landing Lights ON 0 2120
2026-04-25 11:17:40 Taxi Lights ON 0 2120
2026-04-25 11:22:54 Starting Engine 1 0 2120
2026-04-25 11:23:30 Engine 1 shutdown 0 2120
2026-04-25 11:23:41 Starting Engine 1 0 2120
2026-04-25 11:24:24 Engine 1 shutdown 3 2120
2026-04-25 11:24:24 Starting Engine 1 3 2120
2026-04-25 11:24:25 Engine 1 shutdown 3 2120
2026-04-25 11:24:25 Starting Engine 1 3 2120
2026-04-25 11:24:25 Engine 1 shutdown 3 2120
2026-04-25 11:24:25 Starting Engine 1 3 2120
2026-04-25 11:31:20 Aircraft taxiing to runway 4 2121
2026-04-25 11:32:26 FLAPS 50% 20 2111
2026-04-25 11:34:01 Detected Take-off roll, HDG 121, IAS 119kt, GS 125kt, G-force 1.1g, Pitch -3.3deg, Bank -0.3deg, Wind 039/04kt, Temp 17°C 119 2137
2026-04-25 11:34:01 Airborne 119 2137
2026-04-25 11:34:01 Beacon lights OFF and engines ON 119 2137
2026-04-25 11:34:15 Gear UP, IAS 106kt, GS 111kt, ALT 490ft AGL 106 2643
2026-04-25 11:34:42 FLAPS 0% 83kt, ALT 3571ft 83 3571
2026-04-25 11:40:42 Landing lights ON above 10000fts 185 11001
2026-04-25 11:44:20 Landing Lights OFF 183 14674
2026-04-25 11:44:20 Taxi Lights OFF 183 14674
2026-04-25 11:50:19 Simulator Paused 183 19600
2026-04-25 11:50:29 Simulator Un-Paused 183 19600
2026-04-25 11:53:09 Aircraft on Top Of Climb at 21684ft, IAS 184kt, GS 305kt, HDG 70deg, TAT -12deg, WIND 270/48kt 184 21684
2026-04-25 12:30:53 Aircraft on Top Of Descent at 20497ft, IAS 229kt, GS 287kt, HDG 276deg, TAT -9deg, WIND 268/37kt 229 20497
2026-04-25 12:41:53 Landing Lights ON 171 10190
2026-04-25 12:47:28 FLAPS 50% 110kt, ALT 4283ft 110 4283
2026-04-25 12:47:40 Gear DOWN, IAS 110kt, GS 107kt, ALT 1288ft AGL 110 4182
2026-04-25 12:50:00 Gear UP, IAS 94kt, GS 107kt, ALT 552ft AGL 94 3565
2026-04-25 12:52:45 Gear DOWN, IAS 105kt, GS 106kt, ALT 831ft AGL 105 3753
2026-04-25 12:53:07 Gear UP, IAS 99kt, GS 104kt, ALT 689ft AGL 99 3694
2026-04-25 12:55:00 Gear DOWN, IAS 117kt, GS 117kt, ALT 1155ft AGL 117 4111
2026-04-25 12:55:31 Gear UP, IAS 103kt, GS 109kt, ALT 209ft AGL 103 3262
2026-04-25 12:56:20 FLAPS 0% 137kt, ALT 4148ft 137 4148
2026-04-25 12:57:54 Gear DOWN, IAS 129kt, GS 130kt, ALT 1171ft AGL 129 4086
2026-04-25 12:58:01 FLAPS 50% 122kt, ALT 4014ft 122 4014
2026-04-25 12:58:53 Landed at destination with a landing rate of -161fpm, G-force 1.1g, Pitch -3.5deg, Bank -1.0deg, HDG 0deg, IAS 87kt, GS 92kt, Wind 291/04kt, Temp 20°C 87 3050
2026-04-25 12:58:53 Incorrect altimeter settings on landing 87 3050
2026-04-25 12:59:09 Aircraft taxiing to apron 26 3034
2026-04-25 13:00:05 Aircraft at gate/stand, ground services are moving into position, disembarkation has begun. Remaining FOB 194kg FLYacars v1.3.4 2 3026
viserfly

ACARS DATA

DATE IAS GS ALTITUDE FUEL CONSUMED OAT FLIGHT STATUS
2026-04-25 11:18:10 0 0 2120 0 17 BOARDING
2026-04-25 11:18:40 0 0 2120 0 17 BOARDING
2026-04-25 11:19:10 0 0 2120 0 17 BOARDING
2026-04-25 11:19:40 0 0 2120 0 17 BOARDING
2026-04-25 11:20:10 0 0 2120 0 17 BOARDING
2026-04-25 11:20:40 0 0 2120 0 17 BOARDING
2026-04-25 11:21:10 0 0 2120 0 17 BOARDING
2026-04-25 11:21:40 0 0 2120 0 17 BOARDING
2026-04-25 11:22:10 0 0 2120 0 17 BOARDING
2026-04-25 11:22:40 0 0 2120 0 17 BOARDING
2026-04-25 11:23:10 1 0 2120 0 17 BOARDING
2026-04-25 11:23:40 0 3 2120 0 17 PUSHBACK
2026-04-25 11:24:10 3 0 2120 0 17 PUSHBACK
2026-04-25 11:24:40 3 0 2120 0 17 PUSHBACK
2026-04-25 11:25:10 3 0 2120 1 17 PUSHBACK
2026-04-25 11:25:40 3 0 2120 2 17 PUSHBACK
2026-04-25 11:26:10 3 0 2120 2 17 PUSHBACK
2026-04-25 11:26:40 3 0 2120 3 17 PUSHBACK
2026-04-25 11:27:10 3 0 2120 4 17 PUSHBACK
2026-04-25 11:27:40 3 0 2120 4 17 PUSHBACK
2026-04-25 11:28:10 3 0 2120 5 17 PUSHBACK
2026-04-25 11:28:40 3 0 2120 6 17 PUSHBACK
2026-04-25 11:29:10 3 0 2120 7 17 PUSHBACK
2026-04-25 11:29:40 3 0 2120 7 17 PUSHBACK
2026-04-25 11:30:10 3 0 2120 8 17 PUSHBACK
2026-04-25 11:30:40 3 0 2120 9 17 PUSHBACK
2026-04-25 11:31:10 6 3 2120 9 17 PUSHBACK
2026-04-25 11:31:40 6 10 2123 10 17 TAXI TO RUNWAY
2026-04-25 11:32:10 17 20 2116 11 17 TAXI TO RUNWAY
2026-04-25 11:32:40 22 27 2104 12 17 TAXI TO RUNWAY
2026-04-25 11:33:10 8 8 2097 12 17 TAXI TO RUNWAY
2026-04-25 11:33:40 61 65 2109 14 17 TAKEOFF
2026-04-25 11:34:10 115 118 2406 15 17 TAKEOFF
2026-04-25 11:34:40 78 91 3547 17 18 INITIAL CLIMB
2026-04-25 11:35:10 86 108 4441 19 16 INITIAL CLIMB
2026-04-25 11:35:40 76 103 5466 20 14 CLIMB
2026-04-25 11:36:10 67 95 6405 22 12 CLIMB
2026-04-25 11:36:40 110 148 6870 23 12 ENROUTE
2026-04-25 11:37:10 149 189 7326 25 11 CLIMB
2026-04-25 11:37:40 168 210 7888 26 10 CLIMB
2026-04-25 11:38:10 172 223 8433 28 9 CLIMB
2026-04-25 11:38:40 180 233 8940 29 8 CLIMB
2026-04-25 11:39:10 183 241 9452 31 7 CLIMB
2026-04-25 11:39:40 182 241 9952 33 6 CLIMB
2026-04-25 11:40:10 180 243 10451 34 5 CLIMB
2026-04-25 11:40:40 185 247 10956 36 4 CLIMB
2026-04-25 11:41:10 184 249 11454 37 3 CLIMB
2026-04-25 11:41:40 185 253 11957 39 3 CLIMB
2026-04-25 11:42:10 190 260 12460 40 2 CLIMB
2026-04-25 11:42:40 187 260 12957 42 1 CLIMB
2026-04-25 11:43:10 185 261 13454 43 0 CLIMB
2026-04-25 11:43:40 186 263 13956 45 0 CLIMB
2026-04-25 11:44:10 182 261 14520 46 -1 CLIMB
2026-04-25 11:44:40 183 264 14985 48 -2 CLIMB
2026-04-25 11:45:10 183 268 15433 49 -3 CLIMB
2026-04-25 11:45:40 183 270 15896 50 -3 CLIMB
2026-04-25 11:46:10 183 273 16316 52 -4 CLIMB
2026-04-25 11:46:40 183 275 16740 53 -5 CLIMB
2026-04-25 11:47:10 183 277 17172 55 -6 CLIMB
2026-04-25 11:47:40 183 277 17573 56 -6 CLIMB
2026-04-25 11:48:10 183 278 17968 58 -7 CLIMB
2026-04-25 11:48:40 183 282 18351 59 -7 CLIMB
2026-04-25 11:49:10 183 283 18747 61 -8 CLIMB
2026-04-25 11:49:40 183 285 19121 62 -8 CLIMB
2026-04-25 11:50:10 183 288 19487 64 -9 CLIMB
2026-04-25 11:50:40 183 290 19723 65 -9 CLIMB
2026-04-25 11:51:10 183 292 20061 66 -10 CLIMB
2026-04-25 11:51:40 183 295 20444 68 -10 CLIMB
2026-04-25 11:52:10 183 298 20904 69 -11 CLIMB
2026-04-25 11:52:40 183 301 21315 71 -11 CLIMB
2026-04-25 11:53:10 184 305 21686 72 -12 ENROUTE
2026-04-25 11:53:40 194 320 21696 74 -12 ENROUTE
2026-04-25 11:54:10 201 329 21705 76 -12 ENROUTE
2026-04-25 11:54:40 205 335 21708 77 -12 ENROUTE
2026-04-25 11:55:10 208 340 21711 79 -12 ENROUTE
2026-04-25 11:55:40 210 346 21711 80 -12 ENROUTE
2026-04-25 11:56:10 210 352 21709 82 -12 ENROUTE
2026-04-25 11:56:40 211 353 21711 84 -11 ENROUTE
2026-04-25 11:57:10 211 346 21703 85 -11 ENROUTE
2026-04-25 11:57:40 211 347 21709 87 -11 ENROUTE
2026-04-25 11:58:10 212 349 21712 88 -11 ENROUTE
2026-04-25 11:58:40 213 350 21712 90 -11 ENROUTE
2026-04-25 11:59:10 213 349 21712 92 -11 ENROUTE
2026-04-25 11:59:40 213 349 21712 93 -11 ENROUTE
2026-04-25 12:00:10 212 349 21712 95 -11 ENROUTE
2026-04-25 12:00:40 212 349 21712 96 -11 ENROUTE
2026-04-25 12:01:10 212 349 21718 98 -11 ENROUTE
2026-04-25 12:01:40 212 350 21719 100 -11 ENROUTE
2026-04-25 12:02:10 212 351 21718 101 -11 ENROUTE
2026-04-25 12:02:40 212 351 21719 103 -11 ENROUTE
2026-04-25 12:03:10 212 351 21719 105 -11 ENROUTE
2026-04-25 12:03:40 207 343 21719 106 -11 ENROUTE
2026-04-25 12:04:10 196 328 21716 107 -11 ENROUTE
2026-04-25 12:04:40 198 330 21716 109 -11 ENROUTE
2026-04-25 12:05:10 204 339 21724 110 -11 ENROUTE
2026-04-25 12:05:40 209 345 21731 112 -11 ENROUTE
2026-04-25 12:06:10 212 349 21736 114 -11 ENROUTE
2026-04-25 12:06:40 214 351 21740 115 -11 ENROUTE
2026-04-25 12:07:10 215 352 21740 117 -11 ENROUTE
2026-04-25 12:07:40 215 351 21742 119 -11 ENROUTE
2026-04-25 12:08:10 216 352 21743 121 -11 ENROUTE
2026-04-25 12:08:40 216 352 21743 122 -11 ENROUTE
2026-04-25 12:09:10 216 351 21744 124 -11 ENROUTE
2026-04-25 12:09:40 216 351 21743 126 -11 ENROUTE
2026-04-25 12:10:10 216 351 21744 127 -11 ENROUTE
2026-04-25 12:10:40 216 350 21744 129 -11 ENROUTE
2026-04-25 12:11:10 215 350 21744 131 -11 ENROUTE
2026-04-25 12:11:40 215 349 21743 133 -11 ENROUTE
2026-04-25 12:12:10 215 346 21742 134 -11 ENROUTE
2026-04-25 12:12:40 215 345 21742 136 -11 ENROUTE
2026-04-25 12:13:10 215 338 21744 137 -11 ENROUTE
2026-04-25 12:13:40 214 336 21749 139 -11 ENROUTE
2026-04-25 12:14:10 214 338 21751 141 -11 ENROUTE
2026-04-25 12:14:40 213 336 21754 143 -11 ENROUTE
2026-04-25 12:15:10 213 344 21755 144 -11 ENROUTE
2026-04-25 12:15:40 213 342 21756 146 -11 ENROUTE
2026-04-25 12:16:10 214 343 21757 148 -10 ENROUTE
2026-04-25 12:16:40 213 342 21760 149 -10 ENROUTE
2026-04-25 12:17:10 214 342 21760 151 -10 ENROUTE
2026-04-25 12:17:40 214 342 21761 153 -10 ENROUTE
2026-04-25 12:18:10 213 342 21761 154 -10 ENROUTE
2026-04-25 12:18:40 213 342 21762 156 -10 ENROUTE
2026-04-25 12:19:10 213 341 21762 158 -10 ENROUTE
2026-04-25 12:19:40 212 341 21764 159 -10 ENROUTE
2026-04-25 12:20:10 213 341 21763 161 -10 ENROUTE
2026-04-25 12:20:40 213 341 21765 163 -10 ENROUTE
2026-04-25 12:21:10 213 341 21765 164 -10 ENROUTE
2026-04-25 12:21:40 212 341 21762 166 -10 ENROUTE
2026-04-25 12:22:10 210 337 21786 168 -10 ENROUTE
2026-04-25 12:22:40 211 339 21785 169 -10 ENROUTE
2026-04-25 12:23:10 211 339 21786 171 -10 ENROUTE
2026-04-25 12:23:40 211 339 21785 173 -10 ENROUTE
2026-04-25 12:24:10 211 339 21785 174 -10 ENROUTE
2026-04-25 12:24:40 212 340 21788 176 -10 ENROUTE
2026-04-25 12:25:10 212 340 21789 178 -10 ENROUTE
2026-04-25 12:25:40 212 340 21789 179 -10 ENROUTE
2026-04-25 12:26:10 212 340 21789 181 -10 ENROUTE
2026-04-25 12:26:40 212 339 21788 183 -10 ENROUTE
2026-04-25 12:27:10 212 338 21787 184 -10 ENROUTE
2026-04-25 12:27:40 211 344 21787 186 -10 ENROUTE
2026-04-25 12:28:10 211 338 21786 188 -10 ENROUTE
2026-04-25 12:28:40 211 315 21787 189 -10 ENROUTE
2026-04-25 12:29:10 211 291 21796 191 -10 ENROUTE
2026-04-25 12:29:40 211 274 21798 192 -10 ENROUTE
2026-04-25 12:30:10 214 269 21702 194 -10 DESCENT
2026-04-25 12:30:40 226 284 20864 196 -9 DESCENT
2026-04-25 12:31:10 232 289 20024 197 -8 DESCENT
2026-04-25 12:31:40 223 274 19175 198 -7 DESCENT
2026-04-25 12:32:10 220 266 18321 199 -6 DESCENT
2026-04-25 12:32:40 217 263 17471 201 -4 DESCENT
2026-04-25 12:33:10 216 261 16620 202 -3 DESCENT
2026-04-25 12:33:40 216 259 15772 203 -2 DESCENT
2026-04-25 12:34:10 216 258 14924 204 0 DESCENT
2026-04-25 12:34:40 215 256 14071 205 0 DESCENT
2026-04-25 12:35:10 215 259 13229 207 2 DESCENT
2026-04-25 12:35:40 217 256 12380 208 3 DESCENT
2026-04-25 12:36:10 216 254 11535 209 5 DESCENT
2026-04-25 12:36:40 200 235 11356 210 5 ENROUTE
2026-04-25 12:37:10 192 225 11348 212 5 ENROUTE
2026-04-25 12:37:40 187 218 11353 213 5 ENROUTE
2026-04-25 12:38:10 188 217 11353 214 5 ENROUTE
2026-04-25 12:38:40 186 214 11365 215 5 ENROUTE
2026-04-25 12:39:10 186 217 11357 217 5 ENROUTE
2026-04-25 12:39:40 187 218 11357 218 5 ENROUTE
2026-04-25 12:40:10 186 217 11342 219 5 ENROUTE
2026-04-25 12:40:40 182 212 11360 220 5 ENROUTE
2026-04-25 12:41:10 181 209 10913 221 6 DESCENT
2026-04-25 12:41:40 178 206 10412 222 7 DESCENT
2026-04-25 12:42:10 164 187 9901 223 8 DESCENT
2026-04-25 12:42:40 158 178 9386 224 9 DESCENT
2026-04-25 12:43:10 158 174 8879 225 9 DESCENT
2026-04-25 12:43:40 164 174 7893 226 11 DESCENT
2026-04-25 12:44:10 161 164 6898 227 13 DESCENT
2026-04-25 12:44:40 149 148 6295 228 14 DESCENT
2026-04-25 12:45:10 139 134 5375 229 16 DESCENT
2026-04-25 12:45:40 129 124 4628 229 18 DESCENT
2026-04-25 12:46:10 132 130 4624 230 18 DESCENT
2026-04-25 12:46:40 125 120 4618 231 18 DESCENT
2026-04-25 12:47:10 110 107 4447 232 18 DESCENT
2026-04-25 12:47:40 110 107 4182 233 19 APPROACH
2026-04-25 12:48:10 101 103 3883 234 19 ON FINAL
2026-04-25 12:48:40 109 114 3592 234 19 ON FINAL
2026-04-25 12:49:10 110 115 3269 235 20 ON FINAL
2026-04-25 12:49:40 96 103 3359 236 20 ON FINAL
2026-04-25 12:50:10 93 107 3686 237 19 ON FINAL
2026-04-25 12:50:40 106 125 3955 238 19 ON FINAL
2026-04-25 12:51:10 105 129 4306 239 18 APPROACH
2026-04-25 12:51:40 120 126 4435 240 18 APPROACH
2026-04-25 12:52:10 122 121 4219 241 18 APPROACH
2026-04-25 12:52:40 110 110 3780 241 19 ON FINAL
2026-04-25 12:53:10 103 108 3725 242 19 ON FINAL
2026-04-25 12:53:40 139 167 4225 244 18 ON FINAL
2026-04-25 12:54:10 141 166 4618 245 18 APPROACH
2026-04-25 12:54:40 122 125 4321 246 18 APPROACH
2026-04-25 12:55:10 130 136 3651 247 19 ON FINAL
2026-04-25 12:55:40 113 121 3256 248 20 ON FINAL
2026-04-25 12:56:10 127 149 4024 249 19 ON FINAL
2026-04-25 12:56:40 153 175 4014 250 19 ON FINAL
2026-04-25 12:57:10 140 161 3919 251 19 ON FINAL
2026-04-25 12:57:40 130 130 4113 252 19 ON FINAL
2026-04-25 12:58:10 118 122 3796 253 19 ON FINAL
2026-04-25 12:58:40 99 105 3132 254 20 ON FINAL
2026-04-25 12:59:10 25 24 3033 254 20 TAXI TO APRON
2026-04-25 12:59:40 21 19 3027 255 20 TAXI TO APRON
  • Join our VA!

    It has been 11 years of great learning, friendships, and stories.

  • Sign up now!